createdAt,value
2022-10-27T00:00:54.326Z,8.80
2022-10-27T00:03:22.151Z,8.80
2022-10-27T00:05:50.074Z,8.70
2022-10-27T00:08:20.995Z,8.70
2022-10-27T00:11:05.303Z,8.70
2022-10-27T00:13:33.120Z,8.80
2022-10-27T00:16:03.471Z,8.80
2022-10-27T00:18:31.316Z,8.80
2022-10-27T00:21:03.063Z,8.90
2022-10-27T00:23:31.608Z,8.90
2022-10-27T00:25:59.560Z,8.90
2022-10-27T00:28:28.193Z,8.90
2022-10-27T00:31:12.485Z,9.00
2022-10-27T00:33:40.600Z,9.00
2022-10-27T00:36:11.268Z,9.00
2022-10-27T00:38:38.789Z,9.00
2022-10-27T00:41:08.690Z,8.90
2022-10-27T00:43:38.719Z,8.90
2022-10-27T00:46:43.786Z,8.90
2022-10-27T00:49:18.378Z,8.80
2022-10-27T00:51:50.733Z,8.80
2022-10-27T00:54:19.988Z,8.80
2022-10-27T00:56:50.655Z,8.70
2022-10-27T00:59:19.855Z,8.70
2022-10-27T01:01:50.611Z,8.70
2022-10-27T01:04:31.121Z,8.70
2022-10-27T01:07:00.029Z,8.70
2022-10-27T01:09:27.709Z,8.70
2022-10-27T01:11:55.258Z,8.70
2022-10-27T01:14:23.424Z,8.80
2022-10-27T01:17:19.316Z,8.80
2022-10-27T01:19:49.553Z,8.80
2022-10-27T01:22:29.917Z,8.80
2022-10-27T01:25:20.374Z,8.80
2022-10-27T01:28:12.793Z,8.80
2022-10-27T01:30:52.150Z,8.80
2022-10-27T01:33:26.714Z,8.80
2022-10-27T01:36:06.417Z,8.90
2022-10-27T01:39:12.975Z,8.90
2022-10-27T01:44:23.150Z,9.00
2022-10-27T01:46:51.665Z,9.00
2022-10-27T01:49:21.112Z,8.90
2022-10-27T01:51:50.230Z,8.90
2022-10-27T01:54:20.238Z,8.90
2022-10-27T01:57:02.868Z,8.90
2022-10-27T01:59:54.742Z,8.90
2022-10-27T02:02:45.477Z,8.90
2022-10-27T02:05:17.039Z,9.00
2022-10-27T02:07:47.439Z,8.90
2022-10-27T02:10:31.718Z,8.90
2022-10-27T02:13:00.218Z,8.90
2022-10-27T02:15:44.074Z,8.90
2022-10-27T02:18:34.178Z,8.90
2022-10-27T02:21:05.619Z,8.90
2022-10-27T02:23:33.925Z,8.90
2022-10-27T02:26:15.297Z,8.90
2022-10-27T02:29:07.053Z,8.90
2022-10-27T02:31:38.756Z,8.80
2022-10-27T02:34:07.176Z,8.80
2022-10-27T02:36:35.670Z,8.90
2022-10-27T02:39:03.337Z,8.90
2022-10-27T02:41:30.752Z,8.90
2022-10-27T02:43:58.190Z,8.90
2022-10-27T02:46:25.591Z,8.90
2022-10-27T02:48:53.139Z,8.90
2022-10-27T02:51:20.568Z,8.90
2022-10-27T02:53:48.005Z,9.00
2022-10-27T02:56:15.468Z,8.90
2022-10-27T02:58:42.947Z,8.90
2022-10-27T03:01:10.462Z,8.90
2022-10-27T03:03:38.078Z,8.90
2022-10-27T03:06:05.633Z,8.90
2022-10-27T03:08:33.284Z,8.90
2022-10-27T03:11:00.742Z,8.90
2022-10-27T03:13:28.212Z,8.90
2022-10-27T03:15:55.686Z,8.90
2022-10-27T03:18:23.374Z,8.90
2022-10-27T03:20:50.827Z,8.90
2022-10-27T03:23:18.353Z,8.90
2022-10-27T03:25:47.718Z,8.90
2022-10-27T03:28:16.233Z,8.90
2022-10-27T03:30:43.718Z,8.90
2022-10-27T03:33:11.231Z,8.80
2022-10-27T03:35:38.624Z,8.80
2022-10-27T03:38:06.034Z,8.80
2022-10-27T03:40:33.460Z,8.90
2022-10-27T03:43:01.343Z,8.90
2022-10-27T03:45:29.170Z,8.80
2022-10-27T03:48:14.507Z,8.80
2022-10-27T03:50:47.579Z,8.80
2022-10-27T03:53:15.401Z,8.80
2022-10-27T03:55:43.022Z,8.80
2022-10-27T03:58:16.637Z,8.80
2022-10-27T04:00:45.991Z,8.90
2022-10-27T04:03:14.252Z,8.90
2022-10-27T04:05:41.777Z,8.80
2022-10-27T04:08:09.180Z,8.90
2022-10-27T04:10:36.560Z,8.80
2022-10-27T04:13:04.012Z,8.80
2022-10-27T04:15:31.394Z,8.80
2022-10-27T04:18:00.113Z,8.80
2022-10-27T04:20:28.370Z,8.70
2022-10-27T04:22:57.325Z,8.80
2022-10-27T04:25:25.582Z,8.70
2022-10-27T04:28:02.491Z,8.70
2022-10-27T04:30:29.912Z,8.70
2022-10-27T04:32:57.289Z,8.70
2022-10-27T04:35:24.721Z,8.80
2022-10-27T04:37:54.479Z,8.80
2022-10-27T04:40:22.059Z,8.80
2022-10-27T04:42:49.421Z,8.80
2022-10-27T04:45:17.070Z,8.80
2022-10-27T04:47:45.365Z,8.70
2022-10-27T04:50:17.188Z,8.60
2022-10-27T04:52:55.838Z,8.60
2022-10-27T04:55:24.748Z,8.60
2022-10-27T04:57:52.345Z,8.60
2022-10-27T05:00:20.127Z,8.60
2022-10-27T05:02:57.053Z,8.70
2022-10-27T05:05:26.993Z,8.80
2022-10-27T05:08:01.126Z,8.80
2022-10-27T05:10:29.937Z,8.80
2022-10-27T05:12:57.445Z,8.80
2022-10-27T05:15:25.186Z,8.80
2022-10-27T05:17:52.852Z,8.80
2022-10-27T05:20:21.152Z,8.80
2022-10-27T05:22:49.495Z,8.80
2022-10-27T05:25:17.171Z,8.80
2022-10-27T05:27:44.597Z,8.80
2022-10-27T05:30:13.296Z,8.90
2022-10-27T05:32:46.501Z,8.80
2022-10-27T05:35:14.926Z,8.80
2022-10-27T05:37:46.610Z,8.90
2022-10-27T05:40:14.552Z,8.90
2022-10-27T05:42:56.394Z,8.90
2022-10-27T05:45:24.757Z,9.00
2022-10-27T05:48:04.662Z,8.90
2022-10-27T05:50:33.238Z,8.90
2022-10-27T05:53:01.074Z,8.90
2022-10-27T05:55:28.592Z,8.90
2022-10-27T05:57:58.079Z,9.00
2022-10-27T06:00:30.661Z,9.10
2022-10-27T06:02:59.846Z,9.10
2022-10-27T06:05:28.972Z,9.10
2022-10-27T06:07:57.105Z,9.10
2022-10-27T06:10:25.230Z,9.10
2022-10-27T06:12:52.655Z,9.20
2022-10-27T06:15:20.036Z,9.30
2022-10-27T06:17:52.994Z,9.30
2022-10-27T06:20:20.743Z,9.30
2022-10-27T06:22:48.275Z,9.20
2022-10-27T06:25:15.800Z,9.20
2022-10-27T06:27:43.280Z,9.30
2022-10-27T06:30:11.294Z,9.30
2022-10-27T06:32:42.205Z,9.30
2022-10-27T06:35:11.034Z,9.40
2022-10-27T06:37:40.253Z,9.40
2022-10-27T06:40:11.598Z,9.40
2022-10-27T06:42:48.953Z,9.30
2022-10-27T06:45:23.257Z,9.30
2022-10-27T06:47:59.024Z,9.40
2022-10-27T06:50:26.813Z,9.40
2022-10-27T06:52:54.534Z,9.50
2022-10-27T06:55:22.302Z,9.50
2022-10-27T06:57:50.037Z,9.50
2022-10-27T07:00:18.158Z,9.40
2022-10-27T07:02:45.747Z,9.50
2022-10-27T07:05:13.213Z,9.50
2022-10-27T07:07:40.634Z,9.60
2022-10-27T07:10:08.917Z,9.60
2022-10-27T07:12:36.369Z,9.70
2022-10-27T07:15:04.003Z,9.80
2022-10-27T07:17:31.475Z,9.90
2022-10-27T07:19:58.895Z,10.00
2022-10-27T07:22:26.331Z,10.00
2022-10-27T07:24:53.788Z,10.10
2022-10-27T07:27:21.184Z,10.20
2022-10-27T07:29:52.337Z,10.20
2022-10-27T07:32:22.926Z,10.30
2022-10-27T07:34:50.325Z,10.40
2022-10-27T07:37:17.739Z,10.50
2022-10-27T07:39:45.200Z,10.50
2022-10-27T07:42:12.545Z,10.50
2022-10-27T07:44:40.032Z,10.40
2022-10-27T07:47:07.488Z,10.50
2022-10-27T07:49:35.406Z,10.50
2022-10-27T07:52:02.812Z,10.60
2022-10-27T07:54:30.230Z,10.60
2022-10-27T07:56:57.708Z,10.60
2022-10-27T07:59:25.060Z,10.70
2022-10-27T08:01:52.628Z,10.90
2022-10-27T08:04:20.101Z,11.10
2022-10-27T08:06:47.532Z,11.30
2022-10-27T08:09:17.694Z,11.60
2022-10-27T08:11:47.405Z,11.70
2022-10-27T08:14:14.814Z,11.90
2022-10-27T08:16:42.296Z,11.90
2022-10-27T08:19:09.738Z,12.00
2022-10-27T08:21:37.144Z,12.00
2022-10-27T08:24:04.724Z,11.90
2022-10-27T08:26:32.320Z,11.80
2022-10-27T08:28:59.747Z,11.50
2022-10-27T08:31:27.251Z,11.50
2022-10-27T08:33:54.624Z,11.50
2022-10-27T08:36:22.077Z,11.70
2022-10-27T08:38:49.585Z,11.70
2022-10-27T08:41:46.221Z,11.70
2022-10-27T08:44:27.212Z,11.90
2022-10-27T08:47:06.617Z,12.10
2022-10-27T08:49:36.593Z,12.10
2022-10-27T08:52:25.472Z,12.20
2022-10-27T08:54:57.628Z,12.40
2022-10-27T08:57:28.412Z,12.40
2022-10-27T08:59:56.981Z,12.40
2022-10-27T09:03:09.124Z,12.60
2022-10-27T09:05:59.739Z,12.40
2022-10-27T09:08:35.775Z,12.30
2022-10-27T09:11:27.119Z,12.30
2022-10-27T09:14:02.061Z,12.40
2022-10-27T09:17:10.009Z,12.40
2022-10-27T09:20:08.949Z,12.60
2022-10-27T09:22:41.827Z,12.70
2022-10-27T09:25:22.818Z,13.00
2022-10-27T09:27:53.933Z,13.30
2022-10-27T09:30:21.917Z,13.30
2022-10-27T09:32:53.868Z,13.40
2022-10-27T09:35:25.134Z,13.40
2022-10-27T09:37:53.790Z,13.40
2022-10-27T09:40:23.740Z,13.50
2022-10-27T09:42:55.653Z,13.50
2022-10-27T09:45:25.642Z,13.50
2022-10-27T09:47:56.858Z,13.20
2022-10-27T09:50:25.761Z,13.40
2022-10-27T09:52:54.017Z,13.60
2022-10-27T09:55:22.223Z,13.70
2022-10-27T09:57:50.941Z,13.80
2022-10-27T10:00:21.864Z,14.10
2022-10-27T10:02:55.591Z,14.10
2022-10-27T10:05:26.449Z,14.30
2022-10-27T10:08:31.616Z,14.40
2022-10-27T10:11:20.862Z,14.50
2022-10-27T10:14:02.990Z,14.50
2022-10-27T10:16:30.629Z,14.60
2022-10-27T10:19:03.519Z,14.60
2022-10-27T10:21:53.294Z,14.70
2022-10-27T10:24:34.173Z,14.90
2022-10-27T10:27:04.617Z,15.10
2022-10-27T10:29:47.493Z,15.10
2022-10-27T10:32:17.424Z,15.10
2022-10-27T10:34:45.047Z,14.90
2022-10-27T10:37:41.258Z,15.00
2022-10-27T10:40:11.238Z,15.00
2022-10-27T10:42:38.717Z,14.90
2022-10-27T10:45:26.341Z,15.00
2022-10-27T10:48:04.836Z,14.90
2022-10-27T10:50:45.857Z,15.00
2022-10-27T10:53:29.265Z,15.10
2022-10-27T10:56:07.386Z,15.40
2022-10-27T10:58:37.182Z,15.30
2022-10-27T11:01:07.529Z,15.10
2022-10-27T11:03:40.318Z,15.00
2022-10-27T11:06:20.451Z,14.70
2022-10-27T11:09:04.401Z,14.90
2022-10-27T11:11:46.225Z,15.70
2022-10-27T11:14:16.457Z,17.40
2022-10-27T11:16:51.466Z,19.00
2022-10-27T11:19:20.419Z,20.10
2022-10-27T11:21:56.746Z,20.60
2022-10-27T11:24:30.627Z,21.90
2022-10-27T11:27:15.404Z,21.70
2022-10-27T11:29:48.623Z,21.60
2022-10-27T11:32:34.046Z,22.00
2022-10-27T11:35:27.404Z,21.20
2022-10-27T11:38:22.638Z,21.60
2022-10-27T11:41:19.909Z,21.40
2022-10-27T11:44:25.768Z,21.00
2022-10-27T11:47:01.176Z,20.50
2022-10-27T11:49:37.703Z,20.40
2022-10-27T11:52:27.036Z,19.90
2022-10-27T11:54:55.639Z,19.30
2022-10-27T11:57:41.886Z,18.40
2022-10-27T12:00:23.896Z,17.90
2022-10-27T12:03:01.717Z,17.30
2022-10-27T12:05:36.443Z,17.20
2022-10-27T12:08:07.250Z,17.00
2022-10-27T12:11:05.250Z,16.70
2022-10-27T12:13:56.910Z,16.80
2022-10-27T12:16:40.384Z,16.90
2022-10-27T12:19:12.124Z,17.10
2022-10-27T12:22:02.489Z,17.60
2022-10-27T12:24:38.584Z,17.90
2022-10-27T12:27:10.239Z,18.10
2022-10-27T12:29:43.597Z,18.20
2022-10-27T12:32:23.675Z,18.30
2022-10-27T12:35:05.136Z,18.30
2022-10-27T12:38:01.188Z,18.10
2022-10-27T12:40:34.776Z,18.20
2022-10-27T12:43:06.950Z,17.80
2022-10-27T12:45:39.995Z,18.20
2022-10-27T12:48:23.924Z,18.50
2022-10-27T12:51:27.967Z,19.00
2022-10-27T12:54:39.729Z,19.50
2022-10-27T12:57:32.157Z,19.90
2022-10-27T13:00:38.351Z,19.80
2022-10-27T13:03:23.442Z,19.30
2022-10-27T13:06:13.652Z,18.90
2022-10-27T13:11:42.947Z,20.90
2022-10-27T13:14:51.447Z,21.70
2022-10-27T13:17:49.432Z,21.80
2022-10-27T13:20:44.686Z,21.70
2022-10-27T13:23:51.064Z,22.10
2022-10-27T13:26:41.315Z,21.30
2022-10-27T13:29:20.330Z,19.70
2022-10-27T13:32:32.918Z,18.60
2022-10-27T13:35:00.363Z,17.80
2022-10-27T13:37:48.933Z,17.30
2022-10-27T13:40:22.135Z,16.80
2022-10-27T13:42:51.716Z,16.50
2022-10-27T13:45:28.142Z,16.10
2022-10-27T13:48:16.053Z,15.80
2022-10-27T13:50:48.724Z,15.60
2022-10-27T13:53:16.255Z,15.40
2022-10-27T13:55:50.484Z,15.40
2022-10-27T13:58:20.994Z,15.30
2022-10-27T14:01:25.745Z,15.20
2022-10-27T14:04:14.720Z,15.10
2022-10-27T14:06:47.317Z,15.10
2022-10-27T14:09:22.154Z,14.90
2022-10-27T14:11:51.869Z,14.80
2022-10-27T14:14:36.151Z,14.70
2022-10-27T14:17:24.869Z,14.70
2022-10-27T14:20:18.328Z,14.70
2022-10-27T14:22:52.518Z,14.70
2022-10-27T14:25:30.533Z,14.60
2022-10-27T14:28:17.527Z,14.50
2022-10-27T14:30:46.759Z,14.50
2022-10-27T14:33:24.345Z,14.40
2022-10-27T14:36:16.249Z,14.40
2022-10-27T14:38:46.224Z,14.40
2022-10-27T14:41:22.078Z,14.30
2022-10-27T14:43:53.784Z,14.20
2022-10-27T14:46:24.102Z,14.10
2022-10-27T14:49:07.969Z,14.10
2022-10-27T14:51:38.402Z,13.90
2022-10-27T14:56:34.848Z,13.70
2022-10-27T14:59:05.462Z,13.60
2022-10-27T15:01:40.178Z,13.40
2022-10-27T15:04:22.660Z,13.30
2022-10-27T15:06:53.024Z,13.20
2022-10-27T15:09:29.502Z,13.20
2022-10-27T15:11:57.745Z,13.10
2022-10-27T15:14:25.246Z,13.00
2022-10-27T15:16:52.871Z,12.90
2022-10-27T15:19:20.522Z,12.90
2022-10-27T15:21:48.757Z,12.80
2022-10-27T15:24:22.005Z,12.80
2022-10-27T15:26:51.348Z,12.80
2022-10-27T15:29:20.561Z,12.80
2022-10-27T15:31:56.931Z,12.60
2022-10-27T15:34:37.692Z,12.60
2022-10-27T15:37:23.884Z,12.60
2022-10-27T15:39:52.009Z,12.50
2022-10-27T15:42:26.518Z,12.50
2022-10-27T15:45:14.379Z,12.40
2022-10-27T15:47:47.637Z,12.40
2022-10-27T15:50:41.909Z,12.40
2022-10-27T15:53:16.535Z,12.30
2022-10-27T15:55:56.984Z,12.20
2022-10-27T15:58:32.701Z,12.10
2022-10-27T16:01:06.872Z,12.10
2022-10-27T16:03:44.352Z,12.10
2022-10-27T16:06:34.121Z,12.10
2022-10-27T16:09:05.634Z,12.10
2022-10-27T16:11:41.061Z,12.00
2022-10-27T16:14:14.921Z,12.00
2022-10-27T16:16:43.635Z,11.90
2022-10-27T16:19:17.561Z,11.90
2022-10-27T16:21:45.031Z,11.90
2022-10-27T16:24:14.683Z,11.80
2022-10-27T16:26:42.207Z,11.80
2022-10-27T16:29:16.399Z,11.80
2022-10-27T16:31:45.702Z,11.70
2022-10-27T16:34:23.618Z,11.60
2022-10-27T16:36:53.423Z,11.50
2022-10-27T16:39:21.244Z,11.50
2022-10-27T16:41:48.798Z,11.50
2022-10-27T16:44:17.111Z,11.40
2022-10-27T16:46:44.898Z,11.40
2022-10-27T16:49:12.392Z,11.40
2022-10-27T16:51:41.854Z,11.40
2022-10-27T16:54:09.329Z,11.40
2022-10-27T16:56:36.825Z,11.40
2022-10-27T16:59:04.729Z,11.50
2022-10-27T17:01:32.348Z,11.50
2022-10-27T17:04:01.398Z,11.50
2022-10-27T17:06:28.893Z,11.50
2022-10-27T17:08:56.550Z,11.40
2022-10-27T17:11:24.063Z,11.30
2022-10-27T17:13:52.884Z,11.40
2022-10-27T17:16:20.571Z,11.50
2022-10-27T17:18:48.086Z,11.50
2022-10-27T17:21:15.684Z,11.40
2022-10-27T17:23:45.436Z,11.40
2022-10-27T17:26:14.282Z,11.40
2022-10-27T17:28:47.207Z,11.50
2022-10-27T17:31:19.355Z,11.50
2022-10-27T17:33:50.004Z,11.60
2022-10-27T17:36:17.560Z,11.60
2022-10-27T17:38:44.982Z,11.60
2022-10-27T17:41:12.752Z,11.60
2022-10-27T17:43:40.178Z,11.60
2022-10-27T17:46:07.677Z,11.60
2022-10-27T17:48:40.742Z,11.60
2022-10-27T17:51:16.356Z,11.60
2022-10-27T17:53:45.120Z,11.50
2022-10-27T17:56:14.998Z,11.40
2022-10-27T17:58:42.828Z,11.40
2022-10-27T18:01:12.985Z,11.30
2022-10-27T18:03:41.750Z,11.20
2022-10-27T18:06:30.521Z,11.10
2022-10-27T18:09:00.156Z,11.10
2022-10-27T18:11:33.041Z,11.10
2022-10-27T18:14:04.069Z,11.10
2022-10-27T18:16:34.426Z,11.10
2022-10-27T18:19:02.926Z,11.10
2022-10-27T18:21:32.811Z,11.10
2022-10-27T18:24:01.266Z,11.20
2022-10-27T18:26:30.604Z,11.10
2022-10-27T18:28:58.296Z,11.10
2022-10-27T18:31:29.174Z,11.10
2022-10-27T18:33:57.312Z,11.10
2022-10-27T18:36:26.817Z,11.00
2022-10-27T18:38:55.804Z,10.90
2022-10-27T18:41:24.838Z,10.80
2022-10-27T18:43:54.148Z,10.80
2022-10-27T18:46:23.509Z,10.60
2022-10-27T18:48:55.610Z,10.70
2022-10-27T18:51:23.078Z,10.60
2022-10-27T18:53:55.703Z,10.60
2022-10-27T18:56:24.393Z,10.60
2022-10-27T18:58:57.162Z,10.50
2022-10-27T19:01:25.861Z,10.50
2022-10-27T19:03:55.622Z,10.50
2022-10-27T19:06:24.343Z,10.50
2022-10-27T19:08:52.235Z,10.50
2022-10-27T19:11:21.885Z,10.50
2022-10-27T19:13:49.366Z,10.40
2022-10-27T19:16:20.045Z,10.40
2022-10-27T19:18:48.094Z,10.40
2022-10-27T19:21:17.674Z,10.40
2022-10-27T19:23:53.854Z,10.40
2022-10-27T19:26:23.885Z,10.40
2022-10-27T19:28:51.960Z,10.40
2022-10-27T19:31:22.930Z,10.40
2022-10-27T19:33:52.705Z,10.40
2022-10-27T19:36:23.126Z,10.40
2022-10-27T19:38:51.855Z,10.40
2022-10-27T19:41:24.905Z,10.30
2022-10-27T19:43:56.256Z,10.30
2022-10-27T19:46:25.572Z,10.30
2022-10-27T19:48:59.198Z,10.30
2022-10-27T19:51:31.291Z,10.30
2022-10-27T19:53:59.593Z,10.20
2022-10-27T19:56:31.752Z,10.20
2022-10-27T19:59:03.246Z,10.20
2022-10-27T20:01:36.406Z,10.10
2022-10-27T20:04:06.241Z,10.10
2022-10-27T20:06:33.913Z,10.10
2022-10-27T20:09:02.073Z,10.10
2022-10-27T20:11:31.843Z,10.10
2022-10-27T20:14:00.151Z,10.10
2022-10-27T20:16:33.628Z,10.00
2022-10-27T20:19:13.873Z,9.90
2022-10-27T20:21:41.526Z,9.80
2022-10-27T20:24:12.263Z,9.70
2022-10-27T20:26:41.589Z,9.70
2022-10-27T20:29:09.704Z,9.60
2022-10-27T20:31:38.539Z,9.60
2022-10-27T20:34:10.375Z,9.50
2022-10-27T20:36:39.811Z,9.50
2022-10-27T20:39:09.622Z,9.50
2022-10-27T20:41:37.239Z,9.40
2022-10-27T20:44:05.004Z,9.50
2022-10-27T20:46:34.071Z,9.50
2022-10-27T20:49:01.959Z,9.60
2022-10-27T20:51:31.294Z,9.60
2022-10-27T20:53:59.851Z,9.60
2022-10-27T20:56:30.040Z,9.70
2022-10-27T20:58:57.720Z,9.70
2022-10-27T21:01:32.223Z,9.60
2022-10-27T21:04:10.530Z,9.60
2022-10-27T21:06:42.909Z,9.50
2022-10-27T21:09:14.041Z,9.50
2022-10-27T21:11:41.907Z,9.40
2022-10-27T21:14:10.117Z,9.40
2022-10-27T21:16:38.133Z,9.40
2022-10-27T21:19:07.733Z,9.40
2022-10-27T21:21:35.881Z,9.40
2022-10-27T21:24:04.625Z,9.50
2022-10-27T21:26:32.674Z,9.50
2022-10-27T21:29:00.747Z,9.60
2022-10-27T21:31:30.106Z,9.60
2022-10-27T21:34:02.577Z,9.60
2022-10-27T21:36:30.510Z,9.50
2022-10-27T21:38:58.048Z,9.40
2022-10-27T21:41:26.095Z,9.40
2022-10-27T21:43:55.448Z,9.40
2022-10-27T21:46:25.606Z,9.30
2022-10-27T21:48:58.112Z,9.30
2022-10-27T21:51:26.791Z,9.10
2022-10-27T21:54:00.819Z,9.10
2022-10-27T21:56:30.581Z,9.10
2022-10-27T21:58:58.933Z,8.90
2022-10-27T22:01:27.171Z,8.90
2022-10-27T22:03:55.352Z,8.90
2022-10-27T22:06:28.636Z,9.00
2022-10-27T22:08:57.079Z,9.00
2022-10-27T22:11:27.324Z,8.90
2022-10-27T22:13:54.873Z,8.80
2022-10-27T22:16:25.784Z,8.80
2022-10-27T22:18:58.956Z,8.90
2022-10-27T22:21:30.627Z,9.00
2022-10-27T22:23:58.337Z,8.90
2022-10-27T22:26:26.523Z,9.00
2022-10-27T22:28:54.553Z,9.00
2022-10-27T22:31:27.629Z,8.90
2022-10-27T22:33:55.480Z,8.80
2022-10-27T22:36:23.857Z,8.80
2022-10-27T22:38:56.489Z,8.70
2022-10-27T22:41:24.242Z,8.70
2022-10-27T22:43:51.938Z,8.70
2022-10-27T22:46:22.079Z,8.80
2022-10-27T22:48:50.275Z,8.90
2022-10-27T22:51:20.069Z,9.00
2022-10-27T22:53:49.144Z,9.10
2022-10-27T22:56:27.800Z,9.10
2022-10-27T22:58:58.091Z,9.10
2022-10-27T23:01:28.310Z,9.00
2022-10-27T23:03:58.358Z,9.00
2022-10-27T23:06:28.083Z,9.10
2022-10-27T23:09:00.842Z,9.20
2022-10-27T23:11:37.635Z,9.20
2022-10-27T23:14:06.400Z,9.20
2022-10-27T23:16:34.778Z,9.20
2022-10-27T23:19:03.476Z,9.10
2022-10-27T23:21:31.464Z,9.20
2022-10-27T23:24:00.539Z,9.20
2022-10-27T23:26:34.074Z,9.20
2022-10-27T23:29:03.290Z,9.20
2022-10-27T23:31:31.986Z,9.20
2022-10-27T23:34:02.995Z,9.10
2022-10-27T23:36:32.475Z,9.20
2022-10-27T23:39:00.893Z,9.30
2022-10-27T23:41:28.357Z,9.10
2022-10-27T23:43:57.517Z,9.20
2022-10-27T23:46:26.206Z,9.30
2022-10-27T23:48:53.855Z,9.40
2022-10-27T23:51:22.562Z,9.40
2022-10-27T23:53:50.545Z,9.50
2022-10-27T23:56:18.028Z,9.60
2022-10-27T23:58:45.749Z,9.50
